X  Lukk Metar værinformasjon om luftfart     KBDL Bradley International Airport
Temperatur
29°C Temperatur
22°C Duggpunkt
66% Luftfuktighet



Vind
3 M/S
7 MPT
11 KM/T
6 KNP



200°
SSV
Nåværende forhold

For det meste Overskyet For det meste Overskyet
Trykk 1012.53 (hPa) - 29.9 (inHg)
Sikt 10 (mil) - 16.1 (km)
Flyplass
Flyplass-kode KBDL

Plassering: Bradley International Airport
Avstand: 21 (km)

Metar:
KBDL 151251Z 20006KT 10SM BKN080 BKN095 BKN250 29/22 A2990 RMK AO2 SLP123 T02890222

Tid: 07-15-2024 8:51 am EDT